FWKI/LLW METAR and TAF weather

Enter ICAO airport designator
Station Type Date Time Source
FWKI METAR 2018/10/21 05:00 UTC NOAA

FWKI 210500Z 17015KT 9999 FEW021 BKN090 18/13 Q1023 NOSIG


Station Type Date Time Source
FWKI Decoded METAR 2018/10/21 05:00 UTC NOAA

Lilongwe International Airport, Malawi (FWKI) 13-47S 033-46E 1229M
Oct 21, 2018 - 01:00 AM EDT / 2018.10.21 0500 UTC
Wind: from the S (170 degrees) at 17 MPH (15 KT):0
Visibility: greater than 7 mile(s):0
Sky conditions: mostly cloudy
Temperature: 64 F (18 C)
Dew Point: 55 F (13 C)
Relative Humidity: 72%
Pressure (altimeter): 30.21 in. Hg (1023 hPa)
ob: FWKI 210500Z 17015KT 9999 FEW021 BKN090 18/13 Q1023 NOSIG
cycle: 5

Station Type Date Time Source
FWKI TAF 2018/10/20 18:24 UTC NOAA

TAF TAF FWKI 201600Z 2018/2124 10007KT 9999 FEW025CB
BECMG 2107/2109 10010KT BKN030
BECMG 2109/2111 10013KT SCT035 BKN070
TEMPO 2111/2113 VRB03KT 8000 SHRA FEW033CB BKN080
BECMG 2114/2116 10010KT 9999 FEW025CB SCT100


Example: see airport list